Gobernador Costa, Argentina
Current Conditions -  °F | °C
As of 5:00 PM on Wednesday 26 Nov 2014 (Local Time) from SCAP Reporting Station
Clear Clear  
Wind Chill: 68°   Ceiling: Unl
Heat Index: 68°   Visibility: 6mi
Dew Point: 37°   Wind: 14mph
Humidity: 33%   Direction: 250°WSW
Pressure: 30.18"   Gusts: NA
Location:  44.07°S, 70.58°W
Report Text: SCAP 262000Z 25012KT CAVOK 20/03 Q1022
Loading
Personal Weather Stations






























Interactive Weather Map New forecast layout! Learn more

10-Day Weather Forecast

Advertisements
Track Severe Weather on mobile